Buoy 62910

sailwx.info

Track history (hours):
 
Tides and Currents Weather Stations Pressure Air Temp Water Temp Dewpoint Dewpoint Depression Visibility Wind Speed Wind Dir Waves Ship Positions

Drifting buoy 62910

Last reported at 2015-May-28 16:48 UTC. Time now 2015-May-28 20:11 UTC.
Position N 41°23' E 007°05'.

Water temperature 18.1 ° C

Date/timePositionNaut miles runAvg speedWind from/ knotsBaromVisibWave heightAir tempDewpointWater temp
2015-May-28 16:48N 41°23' E 007°05'2 0.8 18.1
2015-May-28 14:04N 41°23' E 007°02'0 0.0 18.1
2015-May-28 13:09N 41°23' E 007°02'1 6.8 18.0
2015-May-28 13:04N 41°24' E 007°03'2 0.6 18.0
2015-May-28 09:50N 41°22' E 007°02'0 0.5 17.6
2015-May-28 08:57N 41°22' E 007°02'215.9
2015-May-28 08:51N 41°20' E 007°02'0 0.0 17.5
2015-May-28 06:04N 41°20' E 007°02'1 4.6 17.3
2015-May-28 05:55N 41°20' E 007°03'1 0.3 17.3
2015-May-28 03:16N 41°20' E 007°04'0 0.1 17.4
2015-May-27 19:49N 41°19' E 007°04'1 0.8 17.4
2015-May-27 19:03N 41°19' E 007°03'0 4.8 17.5
2015-May-27 18:59N 41°19' E 007°04'3 1.2 17.5
2015-May-27 16:12N 41°16' E 007°05'0 0.0 17.5
2015-May-27 16:03N 41°16' E 007°05'0 0.0 17.5
2015-May-27 15:57N 41°16' E 007°05'0 0.0 17.5
2015-May-27 14:57N 41°16' E 007°05'0 0.0 17.4
2015-May-27 14:15N 41°16' E 007°05'1 0.5
2015-May-27 11:01N 41°15' E 007°06'1 4.7 17.2
2015-May-27 10:54N 41°15' E 007°07'0 0.0 17.2
2015-May-27 10:08N 41°15' E 007°07'3 1.2 17.1
2015-May-27 08:02N 41°16' E 007°10'0 0.0 16.9
2015-May-27 06:48N 41°16' E 007°10'1 1.4 16.8
2015-May-27 06:14N 41°15' E 007°09'1 8.4 16.8
2015-May-27 06:09N 41°16' E 007°09'0 0.0 16.8
2015-May-27 05:04N 41°16' E 007°09'2 0.6 16.8
2015-May-27 01:51N 41°16' E 007°07'3 2.0 16.8
2015-May-27 00:10N 41°13' E 007°06'0 0.0 16.8
2015-May-27 00:07N 41°13' E 007°06'0 0.0 16.8
2015-May-26 21:51N 41°13' E 007°06'1 1.4 16.8
2015-May-26 21:05N 41°12' E 007°06'1 5.4 16.7
2015-May-26 20:56N 41°11' E 007°06'1 1.2 16.7
2015-May-26 20:03N 41°11' E 007°07'1 0.6 16.7
2015-May-26 18:29N 41°10' E 007°08'1 3.6 16.8
2015-May-26 18:15N 41°11' E 007°08'2 4.7 16.8
2015-May-26 17:52N 41°10' E 007°10'0 0.0 16.8
2015-May-26 17:47N 41°10' E 007°10'0 0.2 16.8
2015-May-26 16:15N 41°10' E 007°10'0 3.8 16.9
2015-May-26 16:08N 41°11' E 007°09'0 0.2 16.9
2015-May-26 15:12N 41°11' E 007°10'1 1.9 16.9
2015-May-26 14:54N 41°10' E 007°10'1 0.4 16.9
2015-May-26 12:04N 41°11' E 007°11'2 0.6 17.0
2015-May-26 07:57N 41°14' E 007°11'0 0.2 17.1
2015-May-26 05:13N 41°14' E 007°11'1 0.6 17.2
2015-May-26 03:59N 41°14' E 007°11'0 0.1 17.2
2015-May-26 03:04N 41°14' E 007°11'113.8 17.3
2015-May-26 03:00N 41°13' E 007°12'0 0.0 17.3
2015-May-26 02:04N 41°13' E 007°12'0 0.0 17.4
2015-May-25 22:07N 41°13' E 007°12'0 0.1 17.7
2015-May-25 19:58N 41°14' E 007°12'0 0.3 18.0
2015-May-25 18:51N 41°13' E 007°12'0 1.0 18.1
2015-May-25 18:37N 41°13' E 007°12'1 1.2 18.1
2015-May-25 18:05N 41°13' E 007°11'0 0.0 18.2
2015-May-25 17:00N 41°13' E 007°11'0 1.6 18.3
2015-May-25 16:49N 41°13' E 007°11'3 0.6 18.3
2015-May-25 12:03N 41°10' E 007°09'1 3.4
2015-May-25 11:54N 41°10' E 007°08'1 0.5 18.2
2015-May-25 10:49N 41°10' E 007°09'1 0.7 18.0
2015-May-25 10:03N 41°09' E 007°09'0 0.4 17.7
2015-May-25 09:08N 41°09' E 007°09'0 4.6 17.4
2015-May-25 09:03N 41°09' E 007°10'0 0.3 17.4
2015-May-25 07:15N 41°08' E 007°10'0 0.2 17.1
2015-May-25 06:13N 41°08' E 007°10'1 0.6 17.0
2015-May-25 04:57N 41°08' E 007°11'0 0.2 17.0
2015-May-25 03:59N 41°08' E 007°11'0 2.9
2015-May-25 03:53N 41°08' E 007°11'111.5 17.1
2015-May-25 03:50N 41°08' E 007°11'1 2.1 17.1
2015-May-25 03:13N 41°06' E 007°11'0 0.0 17.1
2015-May-25 02:50N 41°06' E 007°11'0 0.0 17.1
2015-May-25 02:14N 41°06' E 007°11'0 0.0 17.1
2015-May-25 02:06N 41°06' E 007°11'1 0.1 17.1
2015-May-24 20:56N 41°06' E 007°11'0 0.5 17.4
2015-May-24 20:05N 41°05' E 007°11'0 3.0 17.4
2015-May-24 20:02N 41°05' E 007°11'0 5.6
2015-May-24 19:58N 41°05' E 007°11'1 0.6 17.5
2015-May-24 19:05N 41°04' E 007°11'0 0.0
2015-May-24 18:51N 41°04' E 007°11'1 1.6 17.7
2015-May-24 18:12N 41°03' E 007°12'0 0.2
2015-May-24 17:10N 41°03' E 007°12'2 0.7 17.9
2015-May-24 14:56N 41°02' E 007°14'1 0.6 18.1
2015-May-24 13:54N 41°02' E 007°14'1 0.7 17.9
2015-May-24 12:08N 41°01' E 007°15'0 0.4 17.4
2015-May-24 11:10N 41°01' E 007°15'0 2.7 17.1
2015-May-24 11:06N 41°01' E 007°15'1 0.2 17.1
2015-May-24 07:47N 41°00' E 007°15'0 0.2 16.5
2015-May-24 06:06N 41°00' E 007°15'0 0.5 16.4
2015-May-24 06:01N 41°00' E 007°15'1 1.0 16.4
2015-May-24 05:08N 40°60' E 007°14'0 0.4 16.4
2015-May-24 04:04N 40°59' E 007°14'0 7.7 16.4
2015-May-24 04:01N 40°59' E 007°14'3 0.6 16.4
2015-May-23 22:51N 40°56' E 007°13'0 0.2 16.4
2015-May-23 22:04N 40°55' E 007°13'1 0.6 16.4
2015-May-23 21:04N 40°55' E 007°13'1 0.2 16.4
2015-May-23 16:09N 40°54' E 007°14'0 0.0 15.9
2015-May-23 16:02N 40°54' E 007°14'0 0.3 15.9
2015-May-23 15:09N 40°54' E 007°13'0 1.6 15.9
2015-May-23 15:02N 40°54' E 007°13'0 0.0 15.9
2015-May-23 14:05N 40°54' E 007°13'1 4.1 15.9
2015-May-23 13:54N 40°54' E 007°12'1 0.2 15.9
2015-May-23 09:06N 40°54' E 007°11'0 0.0 16.4
2015-May-23 09:01N 40°54' E 007°11'1 0.8 16.4
2015-May-23 08:10N 40°54' E 007°10'1 8.3 16.4
2015-May-23 08:05N 40°55' E 007°10'0 0.0 16.4
2015-May-23 06:59N 40°55' E 007°10'1 0.4 16.4
2015-May-23 04:15N 40°55' E 007°08'0 0.0 16.5
2015-May-23 03:52N 40°55' E 007°08'1 0.4 16.5
2015-May-23 00:55N 40°56' E 007°08'239.1 16.5
2015-May-23 00:52N 40°56' E 007°05'0 0.1 16.5
2015-May-22 19:55N 40°56' E 007°04'0 0.0 16.6
2015-May-22 19:53N 40°56' E 007°04'0 1.8 16.6
2015-May-22 19:48N 40°56' E 007°04'0 0.2 16.6
2015-May-22 19:06N 40°56' E 007°04'0 2.7 16.7
2015-May-22 19:00N 40°56' E 007°05'0 0.6
2015-May-22 18:13N 40°56' E 007°05'1 0.6 16.7
2015-May-22 17:00N 40°56' E 007°04'0 0.3 16.7
2015-May-22 16:37N 40°56' E 007°04'0 0.2 16.7
2015-May-22 15:12N 40°56' E 007°04'2 0.5 16.7
2015-May-22 11:05N 40°58' E 007°03'0 3.5 16.5
2015-May-22 11:01N 40°58' E 007°03'0 3.6 16.5
2015-May-22 10:56N 40°58' E 007°03'0 0.0 16.4
2015-May-22 10:51N 40°58' E 007°03'0 0.0 16.4
2015-May-22 10:12N 40°58' E 007°03'1 7.1 16.4
2015-May-22 10:05N 40°58' E 007°02'0 0.4 16.4
2015-May-22 09:19N 40°58' E 007°02'1 0.4
2015-May-22 07:08N 40°59' E 007°02'0 0.5 16.3
2015-May-22 06:54N 40°59' E 007°01'0 0.1 16.3
2015-May-22 06:06N 40°59' E 007°01'1 0.6 16.2
2015-May-22 05:12N 40°59' E 007°01'0 0.1 16.2
2015-May-22 01:04N 40°60' E 007°01'1 0.5 16.2
2015-May-21 21:55N 41°01' E 007°01'0 2.4 16.3
2015-May-21 21:46N 41°01' E 007°00'0 0.0 16.3
2015-May-21 21:09N 41°01' E 007°00'1 4.1
2015-May-21 21:01N 41°02' E 006°60'0 0.2 16.3
2015-May-21 20:04N 41°01' E 007°00'1 0.6 16.3
2015-May-21 18:48N 41°02' E 006°59'1 0.6 16.4
2015-May-21 17:11N 41°03' E 006°59'1 4.4 16.5
2015-May-21 16:58N 41°03' E 006°58'3 0.6 16.5
2015-May-21 12:07N 41°06' E 006°56'0 0.0 16.5
2015-May-21 11:02N 41°06' E 006°56'1 0.7 16.5
2015-May-21 08:54N 41°07' E 006°55'2 1.3 16.5
2015-May-21 07:14N 41°09' E 006°54'2 0.7 16.5
2015-May-21 04:52N 41°11' E 006°53'1 1.0 16.5
2015-May-21 04:03N 41°11' E 006°52'110.9 16.5
2015-May-21 03:59N 41°12' E 006°52'0 0.0 16.5
2015-May-21 03:51N 41°12' E 006°52'0 0.3 16.5
2015-May-21 03:03N 41°12' E 006°52'0 0.0 16.5
2015-May-21 02:58N 41°12' E 006°52'211.4 16.5
2015-May-21 02:50N 41°13' E 006°51'0 0.0
2015-May-21 01:17N 41°13' E 006°51'111.4 16.5
2015-May-21 01:10N 41°14' E 006°49'2 0.3 16.5
2015-May-20 17:41N 41°16' E 006°48'3 0.8 16.7
2015-May-20 13:57N 41°19' E 006°46'0 0.0 16.7
2015-May-20 13:00N 41°19' E 006°46'1 7.1 16.7
2015-May-20 12:51N 41°20' E 006°46'0 0.1 16.7
2015-May-20 11:11N 41°20' E 006°45'0 0.4 16.6
2015-May-20 10:53N 41°20' E 006°45'0 3.2 16.6
2015-May-20 10:49N 41°20' E 006°46'0 0.2 16.6
2015-May-20 10:07N 41°20' E 006°46'1 1.2 16.6
2015-May-20 09:12N 41°21' E 006°45'2 1.0 16.6
2015-May-20 07:07N 41°23' E 006°45'0 0.0 16.6
2015-May-20 06:01N 41°23' E 006°45'0 2.7 16.6
2015-May-20 05:54N 41°23' E 006°44'1 0.8 16.6
2015-May-20 04:12N 41°24' E 006°44'0 0.9 16.7
2015-May-20 03:49N 41°25' E 006°44'0 0.5 16.7
2015-May-20 03:10N 41°25' E 006°44'1 7.1 16.7
2015-May-20 03:03N 41°25' E 006°44'2 0.3 16.7
2015-May-19 21:47N 41°27' E 006°43'0 0.6 17.0
2015-May-19 20:54N 41°27' E 006°43'0 4.4 17.0
2015-May-19 20:50N 41°27' E 006°43'111.6 17.0
2015-May-19 20:47N 41°28' E 006°44'0 0.0 17.0
2015-May-19 20:04N 41°28' E 006°44'0 0.0 17.0
2015-May-19 20:01N 41°28' E 006°44'0 0.3 17.0
2015-May-19 19:47N 41°28' E 006°44'1 1.6 17.0
2015-May-19 19:08N 41°29' E 006°44'0 0.2 17.1
2015-May-19 18:10N 41°29' E 006°44'1 0.6 17.1
2015-May-19 16:08N 41°30' E 006°44'0 2.0 17.2
2015-May-19 15:57N 41°30' E 006°44'1 5.2 17.2
2015-May-19 15:48N 41°31' E 006°44'0 0.1 17.2
2015-May-19 14:13N 41°31' E 006°44'215.3 17.2
2015-May-19 14:07N 41°32' E 006°42'0 0.0 17.2
2015-May-19 13:09N 41°32' E 006°42'0 0.0 17.1
2015-May-19 13:06N 41°32' E 006°42'0 0.0 17.1
2015-May-19 12:59N 41°32' E 006°42'0 0.0
2015-May-19 11:28N 41°32' E 006°42'0 0.8 17.0
2015-May-19 11:21N 41°32' E 006°42'0 0.4 17.0
2015-May-19 11:13N 41°32' E 006°42'2 1.0 17.0
2015-May-19 09:32N 41°33' E 006°41'0 0.1 16.9
2015-May-19 07:53N 41°33' E 006°41'0 1.6 16.8
2015-May-19 07:49N 41°33' E 006°41'113.0 16.8
2015-May-19 07:46N 41°33' E 006°40'0 0.0 16.8
2015-May-19 06:19N 41°33' E 006°40'0 0.0 16.8
2015-May-19 06:05N 41°33' E 006°40'0 0.0 16.8
2015-May-19 06:02N 41°33' E 006°40'0 1.8 16.8
2015-May-19 05:58N 41°33' E 006°40'0 0.0 16.8
2015-May-19 04:58N 41°33' E 006°40'0 0.0 16.9
2015-May-19 04:44N 41°33' E 006°40'0 0.3 16.9
2015-May-19 04:28N 41°33' E 006°40'0 0.0 16.9
2015-May-19 04:24N 41°33' E 006°40'0 2.0 16.9
2015-May-19 04:16N 41°33' E 006°39'0 0.5 16.9
2015-May-19 03:21N 41°33' E 006°40'0 0.2 16.9
2015-May-19 01:44N 41°33' E 006°40'0 0.0 16.9
2015-May-19 01:40N 41°33' E 006°40'1 0.8 16.9
2015-May-18 23:54N 41°34' E 006°39'0 0.0
2015-May-18 22:05N 41°34' E 006°39'0 0.0 17.0
2015-May-18 21:17N 41°34' E 006°39'0 0.9 17.0
2015-May-18 21:12N 41°34' E 006°39'0 6.5 17.0
2015-May-18 21:08N 41°34' E 006°38'0 0.0 17.0
2015-May-18 20:33N 41°34' E 006°38'0 1.4 17.0
2015-May-18 20:22N 41°34' E 006°38'0 0.0 17.0
2015-May-18 20:19N 41°34' E 006°38'0 0.0 17.0
2015-May-18 19:33N 41°34' E 006°38'0 4.5 17.1
2015-May-18 19:27N 41°34' E 006°37'0 0.1 17.1
2015-May-18 18:49N 41°34' E 006°38'1 3.9 17.1
2015-May-18 18:40N 41°34' E 006°37'0 0.1 17.1
2015-May-18 18:13N 41°34' E 006°37'1 1.3 17.2
2015-May-18 17:43N 41°34' E 006°36'0 0.0 17.2
2015-May-18 17:04N 41°34' E 006°36'0 0.0 17.2
2015-May-18 16:59N 41°34' E 006°36'0 7.3 17.2
2015-May-18 16:55N 41°34' E 006°37'   17.2
Track history (hours):
 
Tides and Currents Weather Stations Pressure Air Temp Water Temp Dewpoint Dewpoint Depression Visibility Wind Speed Wind Dir Waves Ship Positions

Drifting buoy 62910

Last reported at 2015-May-28 16:48 UTC. Time now 2015-May-28 20:11 UTC.
Position N 41°23' E 007°05'.

Water temperature 18.1 ° C

Date/timePositionNaut miles runAvg speedWind from/ knotsBaromVisibWave heightAir tempDewpointWater temp
2015-May-28 16:48N 41°23' E 007°05'2 0.8 18.1
2015-May-28 14:04N 41°23' E 007°02'0 0.0 18.1
2015-May-28 13:09N 41°23' E 007°02'1 6.8 18.0
2015-May-28 13:04N 41°24' E 007°03'2 0.6 18.0
2015-May-28 09:50N 41°22' E 007°02'0 0.5 17.6
2015-May-28 08:57N 41°22' E 007°02'215.9
2015-May-28 08:51N 41°20' E 007°02'0 0.0 17.5
2015-May-28 06:04N 41°20' E 007°02'1 4.6 17.3
2015-May-28 05:55N 41°20' E 007°03'1 0.3 17.3
2015-May-28 03:16N 41°20' E 007°04'0 0.1 17.4
2015-May-27 19:49N 41°19' E 007°04'1 0.8 17.4
2015-May-27 19:03N 41°19' E 007°03'0 4.8 17.5
2015-May-27 18:59N 41°19' E 007°04'3 1.2 17.5
2015-May-27 16:12N 41°16' E 007°05'0 0.0 17.5
2015-May-27 16:03N 41°16' E 007°05'0 0.0 17.5
2015-May-27 15:57N 41°16' E 007°05'0 0.0 17.5
2015-May-27 14:57N 41°16' E 007°05'0 0.0 17.4
2015-May-27 14:15N 41°16' E 007°05'1 0.5
2015-May-27 11:01N 41°15' E 007°06'1 4.7 17.2
2015-May-27 10:54N 41°15' E 007°07'0 0.0 17.2
2015-May-27 10:08N 41°15' E 007°07'3 1.2 17.1
2015-May-27 08:02N 41°16' E 007°10'0 0.0 16.9
2015-May-27 06:48N 41°16' E 007°10'1 1.4 16.8
2015-May-27 06:14N 41°15' E 007°09'1 8.4 16.8
2015-May-27 06:09N 41°16' E 007°09'0 0.0 16.8
2015-May-27 05:04N 41°16' E 007°09'2 0.6 16.8
2015-May-27 01:51N 41°16' E 007°07'3 2.0 16.8
2015-May-27 00:10N 41°13' E 007°06'0 0.0 16.8
2015-May-27 00:07N 41°13' E 007°06'0 0.0 16.8
2015-May-26 21:51N 41°13' E 007°06'1 1.4 16.8
2015-May-26 21:05N 41°12' E 007°06'1 5.4 16.7
2015-May-26 20:56N 41°11' E 007°06'1 1.2 16.7
2015-May-26 20:03N 41°11' E 007°07'1 0.6 16.7
2015-May-26 18:29N 41°10' E 007°08'1 3.6 16.8
2015-May-26 18:15N 41°11' E 007°08'2 4.7 16.8
2015-May-26 17:52N 41°10' E 007°10'0 0.0 16.8
2015-May-26 17:47N 41°10' E 007°10'0 0.2 16.8
2015-May-26 16:15N 41°10' E 007°10'0 3.8 16.9
2015-May-26 16:08N 41°11' E 007°09'0 0.2 16.9
2015-May-26 15:12N 41°11' E 007°10'1 1.9 16.9
2015-May-26 14:54N 41°10' E 007°10'1 0.4 16.9
2015-May-26 12:04N 41°11' E 007°11'2 0.6 17.0
2015-May-26 07:57N 41°14' E 007°11'0 0.2 17.1
2015-May-26 05:13N 41°14' E 007°11'1 0.6 17.2
2015-May-26 03:59N 41°14' E 007°11'0 0.1 17.2
2015-May-26 03:04N 41°14' E 007°11'113.8 17.3
2015-May-26 03:00N 41°13' E 007°12'0 0.0 17.3
2015-May-26 02:04N 41°13' E 007°12'0 0.0 17.4
2015-May-25 22:07N 41°13' E 007°12'0 0.1 17.7
2015-May-25 19:58N 41°14' E 007°12'0 0.3 18.0
2015-May-25 18:51N 41°13' E 007°12'0 1.0 18.1
2015-May-25 18:37N 41°13' E 007°12'1 1.2 18.1
2015-May-25 18:05N 41°13' E 007°11'0 0.0 18.2
2015-May-25 17:00N 41°13' E 007°11'0 1.6 18.3
2015-May-25 16:49N 41°13' E 007°11'3 0.6 18.3
2015-May-25 12:03N 41°10' E 007°09'1 3.4
2015-May-25 11:54N 41°10' E 007°08'1 0.5 18.2
2015-May-25 10:49N 41°10' E 007°09'1 0.7 18.0
2015-May-25 10:03N 41°09' E 007°09'0 0.4 17.7
2015-May-25 09:08N 41°09' E 007°09'0 4.6 17.4
2015-May-25 09:03N 41°09' E 007°10'0 0.3 17.4
2015-May-25 07:15N 41°08' E 007°10'0 0.2 17.1
2015-May-25 06:13N 41°08' E 007°10'1 0.6 17.0
2015-May-25 04:57N 41°08' E 007°11'0 0.2 17.0
2015-May-25 03:59N 41°08' E 007°11'0 2.9
2015-May-25 03:53N 41°08' E 007°11'111.5 17.1
2015-May-25 03:50N 41°08' E 007°11'1 2.1 17.1
2015-May-25 03:13N 41°06' E 007°11'0 0.0 17.1
2015-May-25 02:50N 41°06' E 007°11'0 0.0 17.1
2015-May-25 02:14N 41°06' E 007°11'0 0.0 17.1
2015-May-25 02:06N 41°06' E 007°11'1 0.1 17.1
2015-May-24 20:56N 41°06' E 007°11'0 0.5 17.4
2015-May-24 20:05N 41°05' E 007°11'0 3.0 17.4
2015-May-24 20:02N 41°05' E 007°11'0 5.6
2015-May-24 19:58N 41°05' E 007°11'1 0.6 17.5
2015-May-24 19:05N 41°04' E 007°11'0 0.0
2015-May-24 18:51N 41°04' E 007°11'1 1.6 17.7
2015-May-24 18:12N 41°03' E 007°12'0 0.2
2015-May-24 17:10N 41°03' E 007°12'2 0.7 17.9
2015-May-24 14:56N 41°02' E 007°14'1 0.6 18.1
2015-May-24 13:54N 41°02' E 007°14'1 0.7 17.9
2015-May-24 12:08N 41°01' E 007°15'0 0.4 17.4
2015-May-24 11:10N 41°01' E 007°15'0 2.7 17.1
2015-May-24 11:06N 41°01' E 007°15'1 0.2 17.1
2015-May-24 07:47N 41°00' E 007°15'0 0.2 16.5
2015-May-24 06:06N 41°00' E 007°15'0 0.5 16.4
2015-May-24 06:01N 41°00' E 007°15'1 1.0 16.4
2015-May-24 05:08N 40°60' E 007°14'0 0.4 16.4
2015-May-24 04:04N 40°59' E 007°14'0 7.7 16.4
2015-May-24 04:01N 40°59' E 007°14'3 0.6 16.4
2015-May-23 22:51N 40°56' E 007°13'0 0.2 16.4
2015-May-23 22:04N 40°55' E 007°13'1 0.6 16.4
2015-May-23 21:04N 40°55' E 007°13'1 0.2 16.4
2015-May-23 16:09N 40°54' E 007°14'0 0.0 15.9
2015-May-23 16:02N 40°54' E 007°14'0 0.3 15.9
2015-May-23 15:09N 40°54' E 007°13'0 1.6 15.9
2015-May-23 15:02N 40°54' E 007°13'0 0.0 15.9
2015-May-23 14:05N 40°54' E 007°13'1 4.1 15.9
2015-May-23 13:54N 40°54' E 007°12'1 0.2 15.9
2015-May-23 09:06N 40°54' E 007°11'0 0.0 16.4
2015-May-23 09:01N 40°54' E 007°11'1 0.8 16.4
2015-May-23 08:10N 40°54' E 007°10'1 8.3 16.4
2015-May-23 08:05N 40°55' E 007°10'0 0.0 16.4
2015-May-23 06:59N 40°55' E 007°10'1 0.4 16.4
2015-May-23 04:15N 40°55' E 007°08'0 0.0 16.5
2015-May-23 03:52N 40°55' E 007°08'1 0.4 16.5
2015-May-23 00:55N 40°56' E 007°08'239.1 16.5
2015-May-23 00:52N 40°56' E 007°05'0 0.1 16.5
2015-May-22 19:55N 40°56' E 007°04'0 0.0 16.6
2015-May-22 19:53N 40°56' E 007°04'0 1.8 16.6
2015-May-22 19:48N 40°56' E 007°04'0 0.2 16.6
2015-May-22 19:06N 40°56' E 007°04'0 2.7 16.7
2015-May-22 19:00N 40°56' E 007°05'0 0.6
2015-May-22 18:13N 40°56' E 007°05'1 0.6 16.7
2015-May-22 17:00N 40°56' E 007°04'0 0.3 16.7
2015-May-22 16:37N 40°56' E 007°04'0 0.2 16.7
2015-May-22 15:12N 40°56' E 007°04'2 0.5 16.7
2015-May-22 11:05N 40°58' E 007°03'0 3.5 16.5
2015-May-22 11:01N 40°58' E 007°03'0 3.6 16.5
2015-May-22 10:56N 40°58' E 007°03'0 0.0 16.4
2015-May-22 10:51N 40°58' E 007°03'0 0.0 16.4
2015-May-22 10:12N 40°58' E 007°03'1 7.1 16.4
2015-May-22 10:05N 40°58' E 007°02'0 0.4 16.4
2015-May-22 09:19N 40°58' E 007°02'1 0.4
2015-May-22 07:08N 40°59' E 007°02'0 0.5 16.3
2015-May-22 06:54N 40°59' E 007°01'0 0.1 16.3
2015-May-22 06:06N 40°59' E 007°01'1 0.6 16.2
2015-May-22 05:12N 40°59' E 007°01'0 0.1 16.2
2015-May-22 01:04N 40°60' E 007°01'1 0.5 16.2
2015-May-21 21:55N 41°01' E 007°01'0 2.4 16.3
2015-May-21 21:46N 41°01' E 007°00'0 0.0 16.3
2015-May-21 21:09N 41°01' E 007°00'1 4.1
2015-May-21 21:01N 41°02' E 006°60'0 0.2 16.3
2015-May-21 20:04N 41°01' E 007°00'1 0.6 16.3
2015-May-21 18:48N 41°02' E 006°59'1 0.6 16.4
2015-May-21 17:11N 41°03' E 006°59'1 4.4 16.5
2015-May-21 16:58N 41°03' E 006°58'3 0.6 16.5
2015-May-21 12:07N 41°06' E 006°56'0 0.0 16.5
2015-May-21 11:02N 41°06' E 006°56'1 0.7 16.5
2015-May-21 08:54N 41°07' E 006°55'2 1.3 16.5
2015-May-21 07:14N 41°09' E 006°54'2 0.7 16.5
2015-May-21 04:52N 41°11' E 006°53'1 1.0 16.5
2015-May-21 04:03N 41°11' E 006°52'110.9 16.5
2015-May-21 03:59N 41°12' E 006°52'0 0.0 16.5
2015-May-21 03:51N 41°12' E 006°52'0 0.3 16.5
2015-May-21 03:03N 41°12' E 006°52'0 0.0 16.5
2015-May-21 02:58N 41°12' E 006°52'211.4 16.5
2015-May-21 02:50N 41°13' E 006°51'0 0.0
2015-May-21 01:17N 41°13' E 006°51'111.4 16.5
2015-May-21 01:10N 41°14' E 006°49'2 0.3 16.5
2015-May-20 17:41N 41°16' E 006°48'3 0.8 16.7
2015-May-20 13:57N 41°19' E 006°46'0 0.0 16.7
2015-May-20 13:00N 41°19' E 006°46'1 7.1 16.7
2015-May-20 12:51N 41°20' E 006°46'0 0.1 16.7
2015-May-20 11:11N 41°20' E 006°45'0 0.4 16.6
2015-May-20 10:53N 41°20' E 006°45'0 3.2 16.6
2015-May-20 10:49N 41°20' E 006°46'0 0.2 16.6
2015-May-20 10:07N 41°20' E 006°46'1 1.2 16.6
2015-May-20 09:12N 41°21' E 006°45'2 1.0 16.6
2015-May-20 07:07N 41°23' E 006°45'0 0.0 16.6
2015-May-20 06:01N 41°23' E 006°45'0 2.7 16.6
2015-May-20 05:54N 41°23' E 006°44'1 0.8 16.6
2015-May-20 04:12N 41°24' E 006°44'0 0.9 16.7
2015-May-20 03:49N 41°25' E 006°44'0 0.5 16.7
2015-May-20 03:10N 41°25' E 006°44'1 7.1 16.7
2015-May-20 03:03N 41°25' E 006°44'2 0.3 16.7
2015-May-19 21:47N 41°27' E 006°43'0 0.6 17.0
2015-May-19 20:54N 41°27' E 006°43'0 4.4 17.0
2015-May-19 20:50N 41°27' E 006°43'111.6 17.0
2015-May-19 20:47N 41°28' E 006°44'0 0.0 17.0
2015-May-19 20:04N 41°28' E 006°44'0 0.0 17.0
2015-May-19 20:01N 41°28' E 006°44'0 0.3 17.0
2015-May-19 19:47N 41°28' E 006°44'1 1.6 17.0
2015-May-19 19:08N 41°29' E 006°44'0 0.2 17.1
2015-May-19 18:10N 41°29' E 006°44'1 0.6 17.1
2015-May-19 16:08N 41°30' E 006°44'0 2.0 17.2
2015-May-19 15:57N 41°30' E 006°44'1 5.2 17.2
2015-May-19 15:48N 41°31' E 006°44'0 0.1 17.2
2015-May-19 14:13N 41°31' E 006°44'215.3 17.2
2015-May-19 14:07N 41°32' E 006°42'0 0.0 17.2
2015-May-19 13:09N 41°32' E 006°42'0 0.0 17.1
2015-May-19 13:06N 41°32' E 006°42'0 0.0 17.1
2015-May-19 12:59N 41°32' E 006°42'0 0.0
2015-May-19 11:28N 41°32' E 006°42'0 0.8 17.0
2015-May-19 11:21N 41°32' E 006°42'0 0.4 17.0
2015-May-19 11:13N 41°32' E 006°42'2 1.0 17.0
2015-May-19 09:32N 41°33' E 006°41'0 0.1 16.9
2015-May-19 07:53N 41°33' E 006°41'0 1.6 16.8
2015-May-19 07:49N 41°33' E 006°41'113.0 16.8
2015-May-19 07:46N 41°33' E 006°40'0 0.0 16.8
2015-May-19 06:19N 41°33' E 006°40'0 0.0 16.8
2015-May-19 06:05N 41°33' E 006°40'0 0.0 16.8
2015-May-19 06:02N 41°33' E 006°40'0 1.8 16.8
2015-May-19 05:58N 41°33' E 006°40'0 0.0 16.8
2015-May-19 04:58N 41°33' E 006°40'0 0.0 16.9
2015-May-19 04:44N 41°33' E 006°40'0 0.3 16.9
2015-May-19 04:28N 41°33' E 006°40'0 0.0 16.9
2015-May-19 04:24N 41°33' E 006°40'0 2.0 16.9
2015-May-19 04:16N 41°33' E 006°39'0 0.5 16.9
2015-May-19 03:21N 41°33' E 006°40'0 0.2 16.9
2015-May-19 01:44N 41°33' E 006°40'0 0.0 16.9
2015-May-19 01:40N 41°33' E 006°40'1 0.8 16.9
2015-May-18 23:54N 41°34' E 006°39'0 0.0
2015-May-18 22:05N 41°34' E 006°39'0 0.0 17.0
2015-May-18 21:17N 41°34' E 006°39'0 0.9 17.0
2015-May-18 21:12N 41°34' E 006°39'0 6.5 17.0
2015-May-18 21:08N 41°34' E 006°38'0 0.0 17.0
2015-May-18 20:33N 41°34' E 006°38'0 1.4 17.0
2015-May-18 20:22N 41°34' E 006°38'0 0.0 17.0
2015-May-18 20:19N 41°34' E 006°38'0 0.0 17.0
2015-May-18 19:33N 41°34' E 006°38'0 4.5 17.1
2015-May-18 19:27N 41°34' E 006°37'0 0.1 17.1
2015-May-18 18:49N 41°34' E 006°38'1 3.9 17.1
2015-May-18 18:40N 41°34' E 006°37'0 0.1 17.1
2015-May-18 18:13N 41°34' E 006°37'1 1.3 17.2
2015-May-18 17:43N 41°34' E 006°36'0 0.0 17.2
2015-May-18 17:04N 41°34' E 006°36'0 0.0 17.2
2015-May-18 16:59N 41°34' E 006°36'0 7.3 17.2
2015-May-18 16:55N 41°34' E 006°37'   17.2

Dump ship's entire track history